Hesperia, CA (92340)

17:02 PDT le 27 septembre 2016 (GMT -0700)
APRSWXNET | | Change Station

Alt. 3051 ft 34.42 °N, 117.27 °W | Updated 34 minutes ago

Scattered Clouds
Nuages épars
82 ° F
Paraît 80 ° F
N
6
Vent Variable Vent de SSE
Gusts 16.0 mph

Aujourd'hui
Haut(e) -- | Bas -- ° F
--% Risque de précip.
Hier
Haut(e) -- | Bas -- ° F
Precip. -- pouce
Pression 29.96 pouce
Visibilité 10.0 Miles terrestres
Nuages Nuages épars 10000 ft
indice de chaleur 80 ° F
Point de rosée 43 ° F
Humidité 25%
Précipitations pouce
Profondeur de la couche neigeuse Non disponible.
6:41 AM 6:37 PM
Lune descendante, 9% visible
METAR KVCV 272355Z AUTO 12009G14KT 080V150 10SM SCT100 30/04 A2996 RMK AO2
Pression 29.96 pouce
Visibilité 10.0 Miles terrestres
Nuages Nuages épars 10000 ft
indice de chaleur 80 ° F
Point de rosée 43 ° F
Humidité 25%
Précipitations pouce
Profondeur de la couche neigeuse Non disponible.
6:41 AM 6:37 PM
Lune descendante, 9% visible
METAR KVCV 272355Z AUTO 12009G14KT 080V150 10SM SCT100 30/04 A2996 RMK AO2

10-Day Weather Forecast

Almanac

Astronomie

Sep. 27, 2016 Lever Coucher
Temps réel
Crépuscule civil
Crépuscule nautique
Crépuscule astronomique
Lune
Durée de lumière visible
Longueur du jour
Tomorrow will be .
, % of the Moon is Illuminated

Extrêmes aujourd'hui

State Highs State Lows

Community

WunderPhotos

Upload Photos

1,942,179 Photos téléchargées !

WunderBlog® & News

Nearby

Qualité de l'air

  Qualité de l'air Indice de la qualité de l'air Polluant
Not available.

Épaisseur de neige

Station Depth Altitude

Activité sismique

Ville Distance Mag. Time & Date
Minimum magnitude displayed is 2.5.

Températures des eaux côtières

Lieu Température

Stations

Stations météo à proximité

Emplacement de la station Température Refroidissement éolien Point de rosée Humidité Vent Precip. Alt. Mise à jour Type
                   

Watches & Warnings

There are currently no watches in effect.